Time;durP1;ratioP1;P1;durP2;ratioP2;P2;SDS_P1;SDS_P2;PMS_P1;PMS_P2;Temp;Humidity;BMP_temperature;BMP_pressure;BME280_temperature;BME280_humidity;BME280_pressure;Samples;Min_cycle;Max_cycle;Signal;HPM_P1;HPM_P2
2023/06/13 00:05:10;;;;;;;8.10;3.90;;;25.50;52.50;;;;;;222465;1259;22509;-45
2023/06/13 00:10:14;;;;;;;8.60;4.50;;;25.50;52.50;;;;;;222649;1267;25545;-50
2023/06/13 00:15:19;;;;;;;7.90;4.60;;;25.50;52.40;;;;;;222448;1266;22514;-47
2023/06/13 00:20:24;;;;;;;7.40;4.30;;;25.50;52.80;;;;;;222542;1267;25339;-51
2023/06/13 00:25:28;;;;;;;9.70;4.70;;;25.50;52.50;;;;;;222565;1263;24270;-49
2023/06/13 00:30:33;;;;;;;6.50;4.00;;;25.50;52.60;;;;;;222614;1267;22522;-50
2023/06/13 00:35:37;;;;;;;7.70;3.80;;;25.40;52.50;;;;;;222789;1266;24373;-50
2023/06/13 00:40:44;;;;;;;7.80;4.10;;;25.40;52.40;;;;;;222623;1259;22504;-49
2023/06/13 00:45:49;;;;;;;11.70;4.30;;;25.50;52.60;;;;;;222435;1266;22526;-49
2023/06/13 00:50:54;;;;;;;8.00;4.20;;;25.50;52.50;;;;;;230629;1267;22163;-49
2023/06/13 00:55:59;;;;;;;7.00;3.70;;;25.50;52.30;;;;;;223373;1267;25417;-50
2023/06/13 01:01:04;;;;;;;8.80;3.90;;;25.60;52.10;;;;;;222139;1263;23624;-47
2023/06/13 01:06:10;;;;;;;6.10;3.40;;;25.60;52.30;;;;;;222541;1260;24194;-50
2023/06/13 01:11:31;;;;;;;7.00;3.80;;;25.40;52.40;;;;;;222440;1266;22626;-49
2023/06/13 01:16:51;;;;;;;7.70;3.30;;;25.40;52.40;;;;;;222604;1257;22627;-47
2023/06/13 01:21:56;;;;;;;6.00;3.40;;;25.40;52.20;;;;;;222584;1268;25227;-48
2023/06/13 01:27:01;;;;;;;5.50;3.30;;;25.40;52.90;;;;;;222373;1255;24213;-48
2023/06/13 01:32:07;;;;;;;4.50;3.10;;;25.30;52.50;;;;;;222504;1260;22527;-50
2023/06/13 01:37:12;;;;;;;4.90;3.60;;;25.30;53.00;;;;;;222917;1267;24190;-48
2023/06/13 01:42:20;;;;;;;5.60;3.50;;;25.30;52.60;;;;;;222360;1262;22627;-49
2023/06/13 01:48:10;;;;;;;6.40;3.60;;;25.20;52.90;;;;;;222640;1260;25256;-47
2023/06/13 01:53:24;;;;;;;4.50;3.30;;;25.20;52.60;;;;;;222642;1266;22541;-46
2023/06/13 01:58:54;;;;;;;5.50;3.20;;;25.30;52.60;;;;;;222654;1250;23909;-50
2023/06/13 02:03:59;;;;;;;5.60;3.00;;;25.20;52.60;;;;;;222704;1253;22507;-47
2023/06/13 02:09:04;;;;;;;4.90;2.90;;;25.20;53.00;;;;;;222477;1268;24183;-46
2023/06/13 02:14:08;;;;;;;5.00;3.00;;;25.20;52.60;;;;;;222483;1264;195449;-52
2023/06/13 02:19:13;;;;;;;3.00;2.50;;;25.20;52.70;;;;;;222221;1261;22511;-50
2023/06/13 02:24:18;;;;;;;4.50;3.10;;;25.10;53.20;;;;;;222280;1261;24194;-49
2023/06/13 02:29:23;;;;;;;3.10;2.70;;;25.10;52.70;;;;;;222840;1261;24976;-53
2023/06/13 02:34:30;;;;;;;3.80;2.90;;;25.10;53.00;;;;;;222622;1253;25529;-48
2023/06/13 02:39:34;;;;;;;4.20;3.10;;;25.10;52.80;;;;;;222565;1267;22512;-47
2023/06/13 02:44:40;;;;;;;4.50;2.60;;;25.10;53.30;;;;;;222322;1267;22512;-46
2023/06/13 02:49:45;;;;;;;3.30;3.00;;;25.10;52.90;;;;;;227653;1267;22515;-49
2023/06/13 02:54:49;;;;;;;5.50;3.30;;;25.10;52.60;;;;;;223357;1254;25059;-50
2023/06/13 02:59:53;;;;;;;3.60;2.70;;;25.20;52.60;;;;;;224567;1267;24207;-47
2023/06/13 03:04:57;;;;;;;3.40;3.10;;;25.20;52.60;;;;;;222495;1255;25387;-46
2023/06/13 03:10:04;;;;;;;3.10;2.70;;;25.10;52.70;;;;;;222378;1263;24231;-47
2023/06/13 03:15:12;;;;;;;3.60;2.40;;;25.10;52.80;;;;;;222452;1268;23669;-49
2023/06/13 03:20:17;;;;;;;4.10;2.50;;;25.00;52.80;;;;;;222472;1257;22563;-47
2023/06/13 03:25:32;;;;;;;4.50;2.90;;;25.00;53.00;;;;;;222517;1269;22637;-47
2023/06/13 03:30:37;;;;;;;4.30;2.80;;;25.00;53.30;;;;;;222247;1264;22992;-46
2023/06/13 03:35:42;;;;;;;6.30;3.20;;;24.90;53.30;;;;;;222314;1265;22536;-49
2023/06/13 03:40:46;;;;;;;3.30;2.60;;;24.90;53.00;;;;;;222534;1255;23919;-48
2023/06/13 03:45:52;;;;;;;5.00;3.30;;;24.90;53.00;;;;;;222424;1266;25397;-50
2023/06/13 03:50:58;;;;;;;5.20;2.50;;;24.90;53.00;;;;;;222599;1267;24206;-50
2023/06/13 03:56:04;;;;;;;2.80;2.50;;;24.90;53.00;;;;;;222357;1268;24099;-48
2023/06/13 04:01:10;;;;;;;4.60;2.80;;;24.90;53.00;;;;;;222270;1267;22566;-50
2023/06/13 04:06:15;;;;;;;5.00;3.00;;;24.90;53.00;;;;;;222321;1269;22606;-50
2023/06/13 04:11:19;;;;;;;2.90;2.50;;;24.90;53.10;;;;;;222325;1266;22523;-45
2023/06/13 04:16:23;;;;;;;3.30;2.70;;;24.90;53.00;;;;;;221948;1248;24196;-49
2023/06/13 04:21:28;;;;;;;3.00;2.70;;;24.90;53.00;;;;;;222364;1262;25383;-48
2023/06/13 04:26:33;;;;;;;3.50;2.50;;;24.90;53.00;;;;;;222350;1264;22537;-48
2023/06/13 04:31:38;;;;;;;2.50;2.30;;;24.90;53.40;;;;;;222069;1255;22689;-49
2023/06/13 04:36:44;;;;;;;2.70;2.50;;;24.90;53.10;;;;;;221992;1263;24211;-50
2023/06/13 04:41:48;;;;;;;4.10;2.60;;;24.90;53.10;;;;;;221965;1254;24172;-47
2023/06/13 04:46:57;;;;;;;4.20;3.70;;;24.90;53.10;;;;;;222233;1269;22515;-47
2023/06/13 04:52:02;;;;;;;5.80;2.70;;;24.80;53.70;;;;;;222083;1258;22526;-50
2023/06/13 04:57:06;;;;;;;3.40;2.80;;;24.80;53.10;;;;;;222277;1258;25215;-49
2023/06/13 05:02:10;;;;;;;3.20;2.70;;;24.90;53.20;;;;;;222151;1256;22700;-51
2023/06/13 05:07:16;;;;;;;3.40;2.40;;;24.90;53.10;;;;;;222348;1257;24231;-48
2023/06/13 05:12:22;;;;;;;4.10;2.30;;;24.90;53.10;;;;;;222596;1264;24308;-50
2023/06/13 05:17:29;;;;;;;3.00;2.70;;;24.80;53.00;;;;;;222575;1252;22650;-48
2023/06/13 05:22:33;;;;;;;3.30;2.60;;;24.90;53.00;;;;;;222534;1254;22514;-49
2023/06/13 05:27:38;;;;;;;3.90;2.90;;;24.90;53.10;;;;;;222345;1260;22632;-47
2023/06/13 05:32:42;;;;;;;5.10;2.80;;;24.90;52.90;;;;;;222484;1249;24295;-50
2023/06/13 05:37:46;;;;;;;3.20;2.90;;;24.90;53.30;;;;;;222695;1261;22518;-49
2023/06/13 05:42:50;;;;;;;16.40;3.20;;;24.90;53.20;;;;;;222355;1254;22525;-47
2023/06/13 05:47:55;;;;;;;7.00;2.70;;;25.00;53.50;;;;;;222433;1268;22616;-47
2023/06/13 05:52:59;;;;;;;3.60;3.30;;;25.00;53.20;;;;;;222505;1257;22539;-47
2023/06/13 05:58:04;;;;;;;6.40;3.20;;;25.00;53.60;;;;;;222408;1267;22512;-51
2023/06/13 06:03:08;;;;;;;3.90;3.00;;;25.00;54.00;;;;;;222674;1262;25595;-51
2023/06/13 06:08:13;;;;;;;4.90;2.90;;;25.00;53.20;;;;;;222349;1266;22524;-49
2023/06/13 06:13:17;;;;;;;4.80;3.00;;;25.10;54.50;;;;;;222216;1259;22543;-48
2023/06/13 06:18:22;;;;;;;4.80;3.00;;;25.20;53.20;;;;;;222634;1256;22526;-50
2023/06/13 06:23:26;;;;;;;9.40;2.80;;;25.20;53.10;;;;;;222379;1257;22794;-50
2023/06/13 06:28:31;;;;;;;6.20;2.60;;;25.30;53.60;;;;;;222408;1263;24273;-48
2023/06/13 06:33:35;;;;;;;7.40;2.90;;;25.20;53.70;;;;;;222641;1263;22514;-47
2023/06/13 06:38:40;;;;;;;4.30;2.90;;;25.20;53.70;;;;;;222448;1263;24070;-46
2023/06/13 06:43:44;;;;;;;6.70;2.50;;;25.20;54.30;;;;;;222454;1264;22512;-53
2023/06/13 06:48:50;;;;;;;9.40;2.70;;;25.20;54.00;;;;;;222888;1252;22521;-45
2023/06/13 06:53:56;;;;;;;8.30;2.40;;;25.20;54.20;;;;;;222550;1267;24218;-49
2023/06/13 06:59:04;;;;;;;11.10;2.80;;;25.00;52.80;;;;;;222711;1260;24233;-51
2023/06/13 07:04:09;;;;;;;11.00;3.00;;;24.80;49.90;;;;;;222420;1259;25341;-49
2023/06/13 07:09:15;;;;;;;7.70;3.00;;;24.70;49.20;;;;;;222300;1262;22549;-53
2023/06/13 07:14:19;;;;;;;3.80;2.60;;;24.60;47.30;;;;;;222656;1257;24187;-46
2023/06/13 07:19:23;;;;;;;3.10;2.30;;;24.50;46.70;;;;;;222515;1264;24177;-50
2023/06/13 07:24:28;;;;;;;4.00;2.60;;;24.50;46.20;;;;;;222444;1247;24212;-48
2023/06/13 07:29:32;;;;;;;3.40;2.80;;;24.40;45.50;;;;;;222490;1256;22756;-55
2023/06/13 07:34:36;;;;;;;3.10;2.40;;;24.40;45.70;;;;;;222406;1255;22572;-51
2023/06/13 07:40:00;;;;;;;3.60;2.50;;;24.30;44.90;;;;;;222385;1253;22511;-55
2023/06/13 07:45:05;;;;;;;2.70;2.50;;;24.30;44.80;;;;;;222632;1261;25317;-53
2023/06/13 07:50:09;;;;;;;3.40;2.70;;;24.20;44.80;;;;;;222654;1264;24349;-51
2023/06/13 07:55:14;;;;;;;2.80;2.60;;;24.20;44.40;;;;;;222871;1265;22935;-51
2023/06/13 08:00:18;;;;;;;2.80;2.60;;;24.20;44.10;;;;;;222583;1254;22554;-52
2023/06/13 08:05:24;;;;;;;6.30;2.50;;;24.10;44.40;;;;;;222500;1262;22945;-53
2023/06/13 08:10:28;;;;;;;6.40;2.40;;;24.20;43.30;;;;;;222524;1261;24242;-52
2023/06/13 08:15:33;;;;;;;4.20;2.60;;;24.10;43.00;;;;;;222539;1253;22514;-53
2023/06/13 08:20:37;;;;;;;7.90;2.40;;;24.10;43.80;;;;;;222574;1259;22647;-50
2023/06/13 08:25:42;;;;;;;2.60;2.30;;;24.10;42.60;;;;;;222598;1262;22508;-50
2023/06/13 08:30:47;;;;;;;2.50;2.30;;;24.10;43.40;;;;;;222539;1253;22515;-52
2023/06/13 08:35:51;;;;;;;3.60;2.60;;;24.20;42.30;;;;;;222335;1261;23879;-49
2023/06/13 08:40:55;;;;;;;4.00;2.30;;;24.20;42.90;;;;;;222460;1253;22632;-49
2023/06/13 08:45:59;;;;;;;3.60;2.30;;;24.10;42.30;;;;;;222691;1244;24244;-50
2023/06/13 08:51:05;;;;;;;7.50;2.20;;;24.10;42.90;;;;;;222380;1258;24358;-52
2023/06/13 08:56:09;;;;;;;7.40;2.20;;;24.20;43.00;;;;;;222629;1252;22523;-54
2023/06/13 09:01:17;;;;;;;4.80;2.70;;;24.30;43.20;;;;;;222635;1262;23352;-50
2023/06/13 09:06:21;;;;;;;7.00;2.70;;;24.20;43.10;;;;;;222502;1266;25593;-50
2023/06/13 09:11:28;;;;;;;4.20;2.20;;;24.10;43.80;;;;;;222494;1266;22517;-50
2023/06/13 09:16:32;;;;;;;3.40;2.30;;;24.10;44.20;;;;;;222542;1254;22593;-50
2023/06/13 09:21:38;;;;;;;3.40;2.80;;;24.10;44.40;;;;;;222719;1255;22570;-51
2023/06/13 09:26:43;;;;;;;4.50;2.80;;;24.10;45.10;;;;;;222413;1262;22612;-53
2023/06/13 09:31:47;;;;;;;3.30;2.50;;;24.10;44.60;;;;;;222603;1263;22523;-52
2023/06/13 09:36:52;;;;;;;2.70;2.50;;;24.10;44.60;;;;;;222523;1263;22514;-51
2023/06/13 09:41:59;;;;;;;3.00;2.30;;;24.20;44.80;;;;;;222248;1259;22788;-53
2023/06/13 09:47:04;;;;;;;2.70;2.50;;;24.10;44.30;;;;;;222564;1262;22510;-54
2023/06/13 09:52:08;;;;;;;2.70;2.50;;;24.10;43.90;;;;;;222475;1256;24216;-50
2023/06/13 09:57:12;;;;;;;2.80;2.60;;;24.10;44.00;;;;;;222486;1260;24406;-53
2023/06/13 10:02:20;;;;;;;3.80;2.60;;;24.00;44.50;;;;;;222366;1254;23928;-54
2023/06/13 10:07:24;;;;;;;6.80;2.50;;;24.00;43.80;;;;;;222445;1263;22512;-49
2023/06/13 10:12:31;;;;;;;2.50;2.30;;;24.20;43.90;;;;;;222637;1253;22649;-51
2023/06/13 10:17:40;;;;;;;3.70;2.60;;;24.30;43.60;;;;;;222983;1262;22644;-52
2023/06/13 10:22:45;;;;;;;3.20;2.50;;;24.30;43.30;;;;;;222972;1261;22646;-51
2023/06/13 10:27:53;;;;;;;2.40;2.20;;;24.30;43.50;;;;;;222939;1244;25559;-52
2023/06/13 10:32:57;;;;;;;3.50;2.60;;;24.30;43.40;;;;;;222656;1260;22527;-47
2023/06/13 10:38:14;;;;;;;3.80;2.50;;;24.30;43.20;;;;;;222623;1246;24194;-51
2023/06/13 10:43:27;;;;;;;3.50;2.00;;;24.20;42.90;;;;;;222792;1253;25410;-52
2023/06/13 10:48:36;;;;;;;3.40;2.10;;;24.20;42.80;;;;;;222612;1261;24218;-53
2023/06/13 10:53:42;;;;;;;3.60;1.90;;;24.20;42.80;;;;;;222980;1267;22732;-52
2023/06/13 10:58:46;;;;;;;1.90;1.80;;;24.20;42.80;;;;;;222510;1262;23230;-52
2023/06/13 11:03:50;;;;;;;2.20;1.90;;;24.20;42.90;;;;;;222247;1267;22629;-57
2023/06/13 11:09:28;;;;;;;3.50;1.70;;;24.10;42.30;;;;;;222370;1256;26500;-57
2023/06/13 11:14:39;;;;;;;6.90;2.10;;;24.20;42.40;;;;;;221560;1261;22507;-57
2023/06/13 11:19:46;;;;;;;4.40;2.10;;;24.30;42.80;;;;;;221509;1266;23652;-57
2023/06/13 11:24:53;;;;;;;4.20;1.80;;;24.20;43.50;;;;;;221656;1273;25278;-51
2023/06/13 11:29:58;;;;;;;2.60;2.10;;;24.10;45.90;;;;;;221675;1273;24189;-50
2023/06/13 11:35:05;;;;;;;4.00;2.30;;;23.90;47.50;;;;;;221560;1273;24197;-52
2023/06/13 11:40:35;;;;;;;6.70;2.80;;;23.90;47.00;;;;;;222018;1273;25139;-53
2023/06/13 11:45:40;;;;;;;4.10;2.70;;;24.00;48.40;;;;;;224881;1270;22681;-50
2023/06/13 11:50:44;;;;;;;6.30;2.90;;;24.10;48.60;;;;;;222338;1269;24164;-53
2023/06/13 11:55:48;;;;;;;6.10;2.20;;;24.20;46.60;;;;;;222413;1263;22523;-51
2023/06/13 12:00:57;;;;;;;5.60;2.70;;;24.30;46.00;;;;;;222144;1258;22504;-51
2023/06/13 12:06:01;;;;;;;3.30;1.90;;;24.30;49.00;;;;;;222869;1266;24186;-54
2023/06/13 12:11:05;;;;;;;3.20;2.40;;;24.20;49.60;;;;;;222661;1264;22510;-52
2023/06/13 12:16:35;;;;;;;2.70;2.20;;;24.00;46.90;;;;;;222723;1264;24166;-57
2023/06/13 12:21:40;;;;;;;3.70;2.10;;;23.90;49.40;;;;;;222841;1252;22514;-50
2023/06/13 12:26:44;;;;;;;3.70;2.10;;;23.90;49.30;;;;;;222735;1263;22517;-56
2023/06/13 12:31:47;;;;;;;2.30;2.10;;;23.70;48.40;;;;;;222618;1263;25315;-54
2023/06/13 12:36:56;;;;;;;2.50;2.30;;;23.80;49.50;;;;;;222477;1256;22504;-53
2023/06/13 12:42:07;;;;;;;2.80;2.30;;;23.90;48.90;;;;;;222810;1261;22798;-52
2023/06/13 12:47:11;;;;;;;4.20;2.10;;;23.80;48.10;;;;;;222650;1254;23455;-54
2023/06/13 12:52:16;;;;;;;3.10;2.00;;;23.80;46.80;;;;;;223005;1254;22527;-56
2023/06/13 12:57:20;;;;;;;5.40;2.30;;;23.80;47.60;;;;;;222674;1264;23931;-54
2023/06/13 13:02:26;;;;;;;2.70;2.40;;;23.70;46.90;;;;;;222596;1260;22592;-55
2023/06/13 13:07:31;;;;;;;3.00;2.40;;;23.70;48.80;;;;;;222569;1265;24237;-58
2023/06/13 13:12:35;;;;;;;2.50;2.30;;;23.70;48.30;;;;;;222420;1262;22516;-57
2023/06/13 13:17:40;;;;;;;3.80;2.10;;;23.80;47.20;;;;;;222354;1261;22521;-56
2023/06/13 13:22:44;;;;;;;4.20;2.60;;;23.80;45.50;;;;;;222585;1265;22615;-56
2023/06/13 13:27:48;;;;;;;4.60;2.20;;;23.80;47.90;;;;;;222289;1266;22517;-55
2023/06/13 13:32:53;;;;;;;3.00;2.10;;;23.90;49.20;;;;;;222420;1246;22523;-57
2023/06/13 13:37:57;;;;;;;3.80;2.20;;;23.80;47.60;;;;;;222587;1264;24098;-61
2023/06/13 13:43:01;;;;;;;3.00;2.70;;;23.90;50.10;;;;;;222691;1262;22642;-61
2023/06/13 13:48:10;;;;;;;2.80;2.50;;;23.90;50.10;;;;;;222631;1259;22744;-58
2023/06/13 13:53:15;;;;;;;4.10;2.30;;;23.90;49.20;;;;;;222501;1268;22545;-60
2023/06/13 13:58:19;;;;;;;5.70;3.00;;;24.00;48.40;;;;;;222663;1261;26715;-60
2023/06/13 14:03:23;;;;;;;4.10;2.90;;;23.90;47.00;;;;;;223056;1263;22511;-62
2023/06/13 14:08:27;;;;;;;5.70;2.90;;;23.80;48.50;;;;;;222222;1262;22637;-59
2023/06/13 14:13:32;;;;;;;4.50;2.70;;;24.00;51.00;;;;;;222318;1267;194691;-55
2023/06/13 14:18:36;;;;;;;4.20;2.60;;;23.90;49.30;;;;;;222798;1260;26949;-47
2023/06/13 14:23:41;;;;;;;3.10;2.20;;;24.00;48.70;;;;;;222592;1256;22518;-46
2023/06/13 14:28:45;;;;;;;2.60;2.40;;;23.90;49.10;;;;;;222550;1267;22521;-58
2023/06/13 14:33:50;;;;;;;3.40;2.00;;;23.90;51.90;;;;;;222268;1268;22689;-56
2023/06/13 14:38:54;;;;;;;2.20;2.10;;;23.80;50.50;;;;;;222353;1265;22513;-50
2023/06/13 14:43:58;;;;;;;2.60;2.20;;;23.70;50.30;;;;;;222311;1267;22597;-52
2023/06/13 14:49:02;;;;;;;2.90;2.40;;;23.60;50.40;;;;;;222320;1263;22634;-46
2023/06/13 14:54:06;;;;;;;2.30;2.10;;;23.60;51.30;;;;;;222131;1263;22594;-56
2023/06/13 14:59:10;;;;;;;3.90;2.30;;;23.60;49.70;;;;;;222481;1269;22659;-53
2023/06/13 15:04:14;;;;;;;2.40;2.20;;;23.70;49.50;;;;;;222752;1263;24219;-53
2023/06/13 15:09:18;;;;;;;2.60;1.90;;;23.70;49.80;;;;;;222432;1262;22517;-52
2023/06/13 15:14:23;;;;;;;11.80;2.90;;;23.70;50.90;;;;;;222461;1267;24164;-54
2023/06/13 15:19:28;;;;;;;8.80;3.00;;;23.80;47.10;;;;;;222886;1253;24243;-49
2023/06/13 15:24:33;;;;;;;19.60;5.80;;;23.90;46.90;;;;;;222704;1267;22564;-50
2023/06/13 15:29:37;;;;;;;15.30;4.60;;;23.90;53.20;;;;;;222733;1265;23581;-55
2023/06/13 15:34:42;;;;;;;5.80;2.90;;;24.10;53.20;;;;;;222310;1254;25912;-49
2023/06/13 15:39:46;;;;;;;12.80;4.60;;;24.00;49.20;;;;;;222412;1265;26314;-48
2023/06/13 15:44:51;;;;;;;8.80;2.60;;;24.00;49.10;;;;;;222375;1245;24338;-50
2023/06/13 15:49:55;;;;;;;6.70;2.70;;;24.10;49.10;;;;;;222198;1267;22557;-47
2023/06/13 15:54:59;;;;;;;7.80;2.80;;;24.20;51.60;;;;;;222342;1254;22601;-52
2023/06/13 16:00:06;;;;;;;5.00;2.50;;;24.20;54.10;;;;;;222274;1258;26031;-47
2023/06/13 16:05:16;;;;;;;6.20;3.00;;;24.20;55.10;;;;;;222468;1262;22592;-48
2023/06/13 16:10:20;;;;;;;7.80;2.70;;;24.30;56.10;;;;;;222523;1265;22513;-50
2023/06/13 16:15:24;;;;;;;5.80;2.80;;;24.40;56.60;;;;;;222190;1260;22797;-53
2023/06/13 16:20:29;;;;;;;8.70;3.00;;;24.40;56.00;;;;;;222274;1268;22592;-55
2023/06/13 16:25:34;;;;;;;7.60;2.90;;;24.40;55.10;;;;;;223748;1268;22714;-54
2023/06/13 16:30:39;;;;;;;11.50;3.40;;;24.40;54.50;;;;;;222675;1259;25445;-49
2023/06/13 16:35:44;;;;;;;17.20;3.40;;;24.50;57.50;;;;;;222533;1263;22451;-59
2023/06/13 16:40:48;;;;;;;11.40;3.40;;;24.70;57.30;;;;;;230292;1266;22128;-56
2023/06/13 16:45:53;;;;;;;18.40;4.00;;;24.90;54.00;;;;;;225900;1255;24178;-55
2023/06/13 16:50:57;;;;;;;23.40;5.60;;;25.00;54.40;;;;;;222947;1265;23927;-53
2023/06/13 16:56:02;;;;;;;10.30;3.10;;;25.00;54.90;;;;;;222610;1266;22563;-53
2023/06/13 17:01:07;;;;;;;11.20;3.80;;;24.90;55.20;;;;;;223008;1265;24234;-55
2023/06/13 17:06:12;;;;;;;4.00;2.80;;;24.90;55.10;;;;;;222852;1259;22515;-55
2023/06/13 17:11:24;;;;;;;5.60;2.90;;;24.80;55.20;;;;;;223315;1256;22508;-55
2023/06/13 17:16:33;;;;;;;9.90;2.80;;;24.70;55.00;;;;;;222184;1266;24721;-58
2023/06/13 17:21:37;;;;;;;10.20;3.10;;;24.90;54.60;;;;;;222486;1253;22530;-57
2023/06/13 17:26:46;;;;;;;9.50;3.10;;;24.90;54.70;;;;;;222471;1263;25259;-55
2023/06/13 17:31:50;;;;;;;12.30;3.10;;;24.80;55.10;;;;;;222357;1265;22530;-54
2023/06/13 17:36:55;;;;;;;10.70;2.80;;;24.80;54.90;;;;;;222361;1265;24137;-57
2023/06/13 17:42:03;;;;;;;9.70;2.90;;;24.90;54.30;;;;;;222737;1257;23791;-53
2023/06/13 17:47:09;;;;;;;8.50;3.20;;;24.80;54.70;;;;;;223266;1269;22564;-55
2023/06/13 17:52:16;;;;;;;7.50;2.70;;;24.90;54.20;;;;;;224040;1262;22522;-53
2023/06/13 17:57:21;;;;;;;8.10;3.10;;;24.90;54.00;;;;;;222684;1267;22903;-54
2023/06/13 18:02:26;;;;;;;4.50;2.60;;;24.80;54.00;;;;;;222735;1256;24184;-52
2023/06/13 18:07:33;;;;;;;5.20;2.40;;;24.80;53.80;;;;;;222851;1265;25598;-54
2023/06/13 18:12:40;;;;;;;6.70;2.90;;;24.70;54.00;;;;;;222570;1267;24196;-56
2023/06/13 18:17:46;;;;;;;10.30;2.70;;;24.70;53.90;;;;;;223048;1254;22935;-56
2023/06/13 18:22:52;;;;;;;11.50;2.90;;;24.70;53.90;;;;;;222959;1267;23840;-55
2023/06/13 18:27:58;;;;;;;5.40;2.60;;;24.70;54.00;;;;;;222460;1266;22527;-53
2023/06/13 18:33:04;;;;;;;5.50;2.80;;;24.70;53.80;;;;;;222023;1260;24328;-54
2023/06/13 18:38:11;;;;;;;4.20;2.60;;;24.70;53.80;;;;;;221985;1261;24178;-56
2023/06/13 18:43:17;;;;;;;4.70;2.50;;;24.60;53.70;;;;;;222149;1258;24187;-56
2023/06/13 18:48:25;;;;;;;6.80;2.70;;;24.60;53.80;;;;;;222022;1271;24317;-52
2023/06/13 18:53:31;;;;;;;5.50;2.60;;;24.50;53.70;;;;;;222225;1268;24224;-50
2023/06/13 18:58:36;;;;;;;4.00;2.60;;;24.50;53.80;;;;;;222713;1267;25214;-55
2023/06/13 19:03:43;;;;;;;3.90;2.40;;;24.50;53.50;;;;;;223102;1267;22508;-53
2023/06/13 19:08:49;;;;;;;3.90;2.30;;;24.50;53.30;;;;;;223203;1267;25521;-57
2023/06/13 19:13:54;;;;;;;4.50;2.30;;;24.50;53.20;;;;;;222828;1267;22836;-56
2023/06/13 19:19:00;;;;;;;2.30;2.10;;;24.60;53.10;;;;;;223013;1259;22521;-55
2023/06/13 19:24:05;;;;;;;3.50;2.20;;;24.50;53.30;;;;;;222679;1267;22531;-52
2023/06/13 19:29:10;;;;;;;5.10;2.30;;;24.60;52.80;;;;;;223456;1267;22507;-54
2023/06/13 19:34:14;;;;;;;3.20;2.00;;;24.70;53.30;;;;;;223102;1267;25545;-57
2023/06/13 19:39:22;;;;;;;16.10;2.90;;;24.60;52.60;;;;;;222926;1264;22543;-55
2023/06/13 19:44:26;;;;;;;9.50;2.30;;;24.50;53.50;;;;;;226324;1264;22623;-49
2023/06/13 19:49:32;;;;;;;7.90;2.40;;;24.50;54.10;;;;;;227604;1264;22592;-54
2023/06/13 19:54:37;;;;;;;5.70;2.50;;;24.70;53.00;;;;;;222786;1269;24189;-56
2023/06/13 19:59:41;;;;;;;11.30;2.80;;;24.70;52.60;;;;;;222845;1265;22515;-54
2023/06/13 20:04:46;;;;;;;4.40;2.20;;;24.70;53.30;;;;;;222297;1269;23935;-53
2023/06/13 20:09:51;;;;;;;6.50;2.40;;;24.70;53.00;;;;;;222118;1266;22536;-55
2023/06/13 20:14:57;;;;;;;8.20;2.20;;;24.70;53.00;;;;;;222573;1263;24196;-54
2023/06/13 20:20:10;;;;;;;11.00;2.90;;;24.60;53.00;;;;;;222294;1269;23921;-55
2023/06/13 20:25:15;;;;;;;8.70;2.20;;;24.50;53.20;;;;;;222382;1268;24193;-52
2023/06/13 20:30:21;;;;;;;6.50;2.10;;;24.40;53.70;;;;;;222013;1263;23191;-43
2023/06/13 20:35:26;;;;;;;6.30;2.40;;;24.40;53.90;;;;;;222103;1259;23918;-48
2023/06/13 20:40:32;;;;;;;5.50;2.30;;;24.50;53.40;;;;;;222239;1269;24217;-44
2023/06/13 20:45:38;;;;;;;5.20;2.00;;;24.50;53.30;;;;;;222227;1269;22534;-46
2023/06/13 20:50:45;;;;;;;4.80;2.20;;;24.50;53.70;;;;;;222220;1269;24184;-45
2023/06/13 20:55:49;;;;;;;2.40;2.20;;;24.50;53.50;;;;;;222202;1251;24215;-43
2023/06/13 21:00:55;;;;;;;3.50;1.90;;;24.50;53.70;;;;;;222128;1269;22531;-42
2023/06/13 21:06:00;;;;;;;4.30;2.30;;;24.50;53.40;;;;;;222158;1269;24190;-43
2023/06/13 21:11:04;;;;;;;2.30;1.80;;;24.50;53.70;;;;;;222006;1269;24361;-43
2023/06/13 21:16:10;;;;;;;3.10;2.10;;;24.40;53.80;;;;;;222095;1269;24186;-44
2023/06/13 21:21:15;;;;;;;2.30;1.70;;;24.40;53.80;;;;;;222188;1267;23925;-47
2023/06/13 21:26:19;;;;;;;4.70;2.20;;;24.50;54.00;;;;;;222445;1264;25218;-43
2023/06/13 21:31:23;;;;;;;3.80;2.20;;;24.50;54.10;;;;;;222253;1262;25421;-45
2023/06/13 21:36:28;;;;;;;3.50;2.00;;;24.50;54.00;;;;;;222136;1268;22636;-44
2023/06/13 21:41:32;;;;;;;3.50;2.10;;;24.50;54.00;;;;;;221979;1262;24276;-41
2023/06/13 21:46:36;;;;;;;3.00;1.70;;;24.50;54.10;;;;;;222109;1269;22538;-44
2023/06/13 21:51:41;;;;;;;2.50;2.10;;;24.50;53.90;;;;;;222036;1265;22644;-46
2023/06/13 21:56:45;;;;;;;3.00;1.70;;;24.50;54.80;;;;;;221932;1262;22573;-44
2023/06/13 22:01:51;;;;;;;1.90;1.70;;;24.40;54.40;;;;;;222347;1269;24106;-43
2023/06/13 22:06:55;;;;;;;5.60;2.30;;;24.50;54.60;;;;;;222456;1253;24243;-46
2023/06/13 22:12:02;;;;;;;2.30;2.00;;;24.50;55.50;;;;;;222218;1263;24186;-45
2023/06/13 22:17:08;;;;;;;6.10;1.80;;;24.40;54.60;;;;;;222777;1267;23918;-45
2023/06/13 22:22:13;;;;;;;2.30;1.80;;;24.30;55.00;;;;;;222508;1257;23417;-46
2023/06/13 22:27:19;;;;;;;2.70;2.10;;;24.30;54.80;;;;;;222330;1267;22635;-47
2023/06/13 22:32:24;;;;;;;4.90;2.00;;;24.40;54.70;;;;;;222305;1256;22534;-43
2023/06/13 22:37:29;;;;;;;4.00;2.40;;;24.50;55.60;;;;;;227324;1252;23207;-42
2023/06/13 22:42:33;;;;;;;2.40;1.90;;;24.70;54.90;;;;;;226389;1254;22844;-43
2023/06/13 22:47:38;;;;;;;3.80;1.90;;;24.90;53.80;;;;;;228779;1253;24218;-43
2023/06/13 22:52:42;;;;;;;4.00;1.70;;;24.80;53.80;;;;;;222531;1261;26529;-43
2023/06/13 22:57:46;;;;;;;2.30;1.80;;;24.80;53.90;;;;;;222114;1263;24444;-48
2023/06/13 23:02:55;;;;;;;2.10;1.70;;;24.50;54.30;;;;;;222852;1267;22893;-50
2023/06/13 23:08:00;;;;;;;5.60;2.00;;;24.40;54.70;;;;;;222560;1262;22509;-50
2023/06/13 23:13:06;;;;;;;6.20;2.20;;;24.40;55.40;;;;;;222941;1263;22518;-50
2023/06/13 23:18:10;;;;;;;4.10;1.90;;;24.40;56.60;;;;;;222589;1257;22520;-54
2023/06/13 23:23:17;;;;;;;6.20;2.20;;;24.30;56.10;;;;;;222477;1255;25269;-51
2023/06/13 23:28:21;;;;;;;7.40;2.40;;;24.20;56.30;;;;;;222439;1260;25521;-53
2023/06/13 23:33:26;;;;;;;4.70;2.10;;;24.20;56.10;;;;;;222358;1267;22521;-54
2023/06/13 23:38:30;;;;;;;4.20;1.80;;;24.20;56.40;;;;;;222302;1261;22528;-52
2023/06/13 23:43:34;;;;;;;3.30;1.70;;;24.20;56.30;;;;;;226416;1269;22522;-54
2023/06/13 23:48:38;;;;;;;2.40;1.80;;;24.30;55.80;;;;;;229673;1267;23953;-54
2023/06/13 23:53:43;;;;;;;2.80;1.80;;;24.30;55.50;;;;;;222675;1261;22507;-54
2023/06/13 23:58:48;;;;;;;3.30;2.00;;;24.30;55.60;;;;;;222701;1252;25279;-51
